Terminal Aerodrome Forecast
Issued by NWS Charleston, SC

Home | Current Version | Previous Version | Text Only | Print | Product List | Glossary On
Versions: 1 2 3 4 5 6 7 8 9 10 11 12 13 14
000
FTUS42 KCHS 291400 AAB
TAFSAV
TAF AMD
KSAV 291458Z 2915/3012 02007KT P6SM FEW080
     FM291800 VRB05KT P6SM SCT080
     FM300100 00000KT P6SM FEW060=

USA.gov is the U.S. government's official web portal to all federal, state and local government web resources and services.